NBO343 ENTC-ENAT

Flight info

Callsign NBO343
Flight time 0h 37m
Altitude 5500
Route COASTLINE
Aircraft C208/L-SDFGRWY/L

Departure

Time 2026-04-30 22:08
Airport Tromsø Airport (ENTC)

Arrival

Time 2026-04-30 22:45
Airport Alta Airport (ENAT)
Time Latitude Longitude Altitude Speed Heading
2026-04-30 22:06 69.68757 18.92171 21 ft 0 kts 193°
2026-04-30 22:07 69.68753 18.92169 21 ft 9 kts 192°
2026-04-30 22:07 69.68440 18.91934 28 ft 78 kts 194°
2026-04-30 22:07 69.67806 18.91587 347 ft 95 kts 196°
2026-04-30 22:07 69.67013 18.91124 494 ft 122 kts 192°
2026-04-30 22:08 69.66247 18.91692 1014 ft 124 kts 142°
2026-04-30 22:08 69.65824 18.93965 1355 ft 133 kts 98°
2026-04-30 22:08 69.66007 18.96410 1792 ft 124 kts 57°
2026-04-30 22:08 69.66591 18.98295 2104 ft 128 kts 37°
2026-04-30 22:09 69.67230 19.00041 2499 ft 127 kts 42°
2026-04-30 22:09 69.67825 19.01860 2887 ft 127 kts 43°
2026-04-30 22:09 69.68452 19.03661 3245 ft 128 kts 43°
2026-04-30 22:09 69.68934 19.05865 3509 ft 136 kts 69°
2026-04-30 22:10 69.69086 19.08557 3835 ft 135 kts 84°
2026-04-30 22:10 69.69225 19.11254 4156 ft 139 kts 78°
2026-04-30 22:10 69.69404 19.13996 4448 ft 141 kts 78°
2026-04-30 22:10 69.69630 19.16750 4742 ft 140 kts 70°
2026-04-30 22:11 69.70069 19.22072 5386 ft 132 kts 80°
2026-04-30 22:11 69.70244 19.24813 5489 ft 152 kts 75°
2026-04-30 22:11 69.70790 19.27538 5497 ft 163 kts 52°
2026-04-30 22:12 69.71225 19.30622 5498 ft 170 kts 77°
2026-04-30 22:12 69.71456 19.33940 5508 ft 173 kts 78°
2026-04-30 22:12 69.71706 19.37354 5508 ft 175 kts 77°
2026-04-30 22:12 69.71968 19.40801 5507 ft 177 kts 77°
2026-04-30 22:13 69.72234 19.44274 5504 ft 178 kts 77°
2026-04-30 22:13 69.72499 19.47740 5502 ft 177 kts 77°
2026-04-30 22:13 69.72765 19.51211 5511 ft 179 kts 77°
2026-04-30 22:13 69.73030 19.54711 5497 ft 177 kts 77°
2026-04-30 22:14 69.73282 19.58188 5507 ft 178 kts 79°
2026-04-30 22:14 69.73479 19.61743 5500 ft 180 kts 80°
2026-04-30 22:14 69.73685 19.65285 5499 ft 178 kts 80°
2026-04-30 22:14 69.73896 19.68798 5496 ft 178 kts 79°
2026-04-30 22:15 69.74110 19.72340 5499 ft 179 kts 79°
2026-04-30 22:15 69.74325 19.75882 5499 ft 179 kts 79°
2026-04-30 22:15 69.74536 19.79421 5501 ft 179 kts 79°
2026-04-30 22:15 69.74745 19.82916 5501 ft 179 kts 80°
2026-04-30 22:16 69.74957 19.86468 5501 ft 180 kts 79°
2026-04-30 22:16 69.75168 19.90032 5502 ft 181 kts 80°
2026-04-30 22:17 69.76083 20.00554 5504 ft 181 kts 74°
2026-04-30 22:17 69.76417 20.04068 5500 ft 181 kts 74°
2026-04-30 22:17 69.77068 20.11029 5501 ft 180 kts 74°
2026-04-30 22:18 69.77392 20.14506 5498 ft 182 kts 75°
2026-04-30 22:18 69.78042 20.21553 5491 ft 182 kts 75°
2026-04-30 22:19 69.78685 20.28467 5495 ft 176 kts 74°
2026-04-30 22:19 69.79003 20.31881 5500 ft 176 kts 74°
2026-04-30 22:19 69.79631 20.38728 5499 ft 177 kts 74°
2026-04-30 22:20 69.79946 20.42169 5500 ft 178 kts 75°
2026-04-30 22:20 69.80575 20.49078 5501 ft 178 kts 74°
2026-04-30 22:20 69.80892 20.52550 5501 ft 178 kts 75°
2026-04-30 22:21 69.81203 20.55993 5510 ft 182 kts 75°
2026-04-30 22:21 69.81525 20.59563 5510 ft 184 kts 74°
2026-04-30 22:21 69.81847 20.63190 5472 ft 189 kts 75°
2026-04-30 22:21 69.82176 20.66838 5495 ft 186 kts 74°
2026-04-30 22:22 69.82505 20.70434 5492 ft 182 kts 75°
2026-04-30 22:22 69.82821 20.73952 5495 ft 180 kts 75°
2026-04-30 22:22 69.83134 20.77479 5492 ft 181 kts 75°
2026-04-30 22:22 69.83447 20.80999 5491 ft 181 kts 75°
2026-04-30 22:23 69.83760 20.84528 5487 ft 180 kts 75°
2026-04-30 22:23 69.84070 20.88037 5499 ft 180 kts 75°
2026-04-30 22:23 69.84378 20.91512 5496 ft 180 kts 75°
2026-04-30 22:23 69.84689 20.95027 5495 ft 180 kts 75°
2026-04-30 22:24 69.84996 20.98535 5496 ft 179 kts 75°
2026-04-30 22:24 69.85303 21.02031 5496 ft 179 kts 75°
2026-04-30 22:24 69.85609 21.05525 5498 ft 179 kts 75°
2026-04-30 22:24 69.85916 21.09042 5501 ft 180 kts 76°
2026-04-30 22:25 69.86223 21.12575 5498 ft 181 kts 76°
2026-04-30 22:25 69.86529 21.16112 5493 ft 180 kts 76°
2026-04-30 22:25 69.86829 21.19565 5494 ft 179 kts 75°
2026-04-30 22:25 69.87131 21.23069 5500 ft 180 kts 75°
2026-04-30 22:26 69.87742 21.30188 5479 ft 180 kts 75°
2026-04-30 22:26 69.88042 21.33653 5505 ft 176 kts 75°
2026-04-30 22:26 69.88336 21.37094 5506 ft 177 kts 76°
2026-04-30 22:27 69.88632 21.40579 5504 ft 178 kts 76°
2026-04-30 22:27 69.88929 21.44074 5508 ft 178 kts 75°
2026-04-30 22:27 69.89526 21.51113 5504 ft 180 kts 76°
2026-04-30 22:28 69.90617 21.57384 5498 ft 176 kts 52°
2026-04-30 22:28 69.91321 21.60297 5499 ft 177 kts 53°
2026-04-30 22:29 69.93451 21.69119 5502 ft 178 kts 53°
2026-04-30 22:29 69.94152 21.72062 5650 ft 182 kts 49°
2026-04-30 22:30 69.96881 21.85406 5516 ft 193 kts 53°
2026-04-30 22:31 69.98934 21.95608 5500 ft 194 kts 53°
2026-04-30 22:32 70.00956 22.05741 5374 ft 191 kts 53°
2026-04-30 22:32 70.02290 22.12415 5062 ft 190 kts 53°
2026-04-30 22:33 70.03877 22.23076 4599 ft 191 kts 70°
2026-04-30 22:33 70.04604 22.30463 4283 ft 187 kts 71°
2026-04-30 22:34 70.05681 22.41355 3803 ft 184 kts 71°
2026-04-30 22:35 70.06396 22.48433 3507 ft 180 kts 72°
2026-04-30 22:36 70.07834 22.62191 3495 ft 175 kts 71°
2026-04-30 22:36 70.08188 22.65596 3494 ft 175 kts 71°
2026-04-30 22:37 70.09241 22.75752 3495 ft 174 kts 71°
2026-04-30 22:37 70.09593 22.79150 3493 ft 174 kts 71°
2026-04-30 22:37 70.10290 22.85893 3301 ft 173 kts 72°
2026-04-30 22:38 70.10942 22.92577 2784 ft 168 kts 78°
2026-04-30 22:38 70.11104 22.98983 2109 ft 151 kts 104°
2026-04-30 22:39 70.10655 23.01563 1952 ft 136 kts 137°
2026-04-30 22:39 70.08349 23.05080 1445 ft 120 kts 161°
2026-04-30 22:40 70.06058 23.07339 1167 ft 119 kts 160°
2026-04-30 22:41 70.03891 23.10436 922 ft 112 kts 143°
2026-04-30 22:41 70.02789 23.13410 931 ft 105 kts 133°
2026-04-30 22:42 70.01061 23.20219 981 ft 105 kts 121°
2026-04-30 22:43 70.00319 23.23878 876 ft 105 kts 121°
2026-04-30 22:43 69.99635 23.27348 721 ft 95 kts 121°
2026-04-30 22:44 69.99033 23.30371 425 ft 76 kts 124°
2026-04-30 22:45 69.98047 23.35080 16 ft 50 kts 119°
2026-04-30 22:45 69.97859 23.35172 18 ft 14 kts 252°
2026-04-30 22:46 69.97795 23.34912 18 ft 0 kts 208°